Time;durP1;ratioP1;P1;durP2;ratioP2;P2;SDS_P1;SDS_P2;PMS_P1;PMS_P2;Temp;Humidity;BMP_temperature;BMP_pressure;BME280_temperature;BME280_humidity;BME280_pressure;Samples;Min_cycle;Max_cycle;Signal;HPM_P1;HPM_P2
2022/12/08 00:00:45;;;;;;;;;;;3.40;99.90;;;;;;5091119;28;20024;-71
2022/12/08 00:03:12;;;;;;;;;;;3.40;99.90;;;;;;5090559;28;19924;-71
2022/12/08 00:11:11;;;;;;;;;;;3.40;99.90;;;;;;5094031;28;19927;-71
2022/12/08 00:13:38;;;;;;;;;;;3.40;99.90;;;;;;5090704;27;19961;-72
2022/12/08 00:16:05;;;;;;;;;;;3.40;99.90;;;;;;5092561;28;19932;-72
2022/12/08 00:18:32;;;;;;;;;;;3.40;99.90;;;;;;5092246;28;20544;-71
2022/12/08 00:20:59;;;;;;;;;;;3.40;99.90;;;;;;5089150;28;19924;-72
2022/12/08 00:23:27;;;;;;;;;;;3.40;99.90;;;;;;5091181;28;19923;-72
2022/12/08 00:25:54;;;;;;;;;;;3.40;99.90;;;;;;5095282;27;20006;-72
2022/12/08 00:28:21;;;;;;;;;;;3.40;99.90;;;;;;5096881;28;20447;-72
2022/12/08 00:30:48;;;;;;;;;;;3.40;99.90;;;;;;5093542;28;20179;-72
2022/12/08 00:33:15;;;;;;;;;;;3.30;99.90;;;;;;5091409;28;19928;-72
2022/12/08 00:35:42;;;;;;;;;;;3.30;99.90;;;;;;5096212;28;19978;-72
2022/12/08 00:38:09;;;;;;;;;;;3.40;99.90;;;;;;5096981;27;19991;-72
2022/12/08 00:40:44;;;;;;;;;;;3.40;99.90;;;;;;5093744;27;20389;-72
2022/12/08 00:43:11;;;;;;;;;;;3.30;99.90;;;;;;5095270;28;19931;-71
2022/12/08 00:45:38;;;;;;;;;;;3.40;99.90;;;;;;5086700;28;19928;-72
2022/12/08 00:48:05;;;;;;;;;;;3.40;99.90;;;;;;5096723;28;19928;-72
2022/12/08 00:50:33;;;;;;;;;;;3.40;99.90;;;;;;5090222;28;20752;-72
2022/12/08 00:52:59;;;;;;;;;;;3.40;99.90;;;;;;5095483;28;20359;-71
2022/12/08 00:55:26;;;;;;;;;;;3.40;99.90;;;;;;5084067;27;20014;-71
2022/12/08 00:57:54;;;;;;;;;;;3.40;99.90;;;;;;5099851;28;19928;-72
2022/12/08 01:00:21;;;;;;;;;;;3.30;99.90;;;;;;5095804;28;19981;-72
2022/12/08 01:02:48;;;;;;;;;;;3.30;99.90;;;;;;5091764;28;20404;-72
2022/12/08 01:05:15;;;;;;;;;;;3.30;99.90;;;;;;5094691;28;20312;-72
2022/12/08 01:07:42;;;;;;;;;;;3.30;99.90;;;;;;5101142;28;19963;-72
2022/12/08 01:10:11;;;;;;;;;;;3.30;99.90;;;;;;5096216;28;19984;-71
2022/12/08 01:12:38;;;;;;;;;;;3.30;99.90;;;;;;5089061;28;20160;-72
2022/12/08 01:15:07;;;;;;;;;;;3.30;99.90;;;;;;5068426;28;20034;-72
2022/12/08 01:17:36;;;;;;;;;;;3.30;99.90;;;;;;5087745;28;19943;-72
2022/12/08 01:20:03;;;;;;;;;;;3.30;99.90;;;;;;5087045;28;20000;-72
2022/12/08 01:22:30;;;;;;;;;;;3.30;99.90;;;;;;5091757;28;19928;-72
2022/12/08 01:24:57;;;;;;;;;;;3.30;99.90;;;;;;5093432;28;20544;-72
2022/12/08 01:27:24;;;;;;;;;;;3.30;99.90;;;;;;5098979;28;19971;-72
2022/12/08 01:29:51;;;;;;;;;;;3.20;99.90;;;;;;5093888;28;19924;-71
2022/12/08 01:32:19;;;;;;;;;;;3.20;99.90;;;;;;5087408;28;19930;-72
2022/12/08 01:34:46;;;;;;;;;;;3.20;99.90;;;;;;5096229;28;19935;-72
2022/12/08 01:37:13;;;;;;;;;;;3.20;99.90;;;;;;5091925;28;19924;-71
2022/12/08 01:39:40;;;;;;;;;;;3.20;99.90;;;;;;5096674;28;19924;-72
2022/12/08 01:42:14;;;;;;;;;;;3.20;99.90;;;;;;5090494;28;19936;-72
2022/12/08 01:44:51;;;;;;;;;;;3.20;99.90;;;;;;5099364;28;19964;-71
2022/12/08 01:47:20;;;;;;;;;;;3.20;99.90;;;;;;5091524;28;20385;-71
2022/12/08 01:49:47;;;;;;;;;;;3.20;99.90;;;;;;5092466;28;19932;-72
2022/12/08 01:52:15;;;;;;;;;;;3.20;99.90;;;;;;5091009;28;19938;-72
2022/12/08 01:54:52;;;;;;;;;;;3.20;99.90;;;;;;5098474;28;19932;-70
2022/12/08 01:57:22;;;;;;;;;;;3.20;99.90;;;;;;5092240;28;21725;-72
2022/12/08 01:59:53;;;;;;;;;;;3.20;99.90;;;;;;5092874;28;19997;-72
2022/12/08 02:02:21;;;;;;;;;;;3.20;99.90;;;;;;5098182;28;19963;-72
2022/12/08 02:04:48;;;;;;;;;;;3.20;99.90;;;;;;5094773;28;19923;-71
2022/12/08 02:07:16;;;;;;;;;;;3.20;99.90;;;;;;5087352;28;20020;-71
2022/12/08 02:09:44;;;;;;;;;;;3.20;99.90;;;;;;5096055;28;19963;-71
2022/12/08 02:12:11;;;;;;;;;;;3.10;99.90;;;;;;5096898;28;19932;-71
2022/12/08 02:14:38;;;;;;;;;;;3.20;99.90;;;;;;5091947;28;20591;-71
2022/12/08 02:17:09;;;;;;;;;;;3.20;99.90;;;;;;5092245;28;20436;-71
2022/12/08 02:19:51;;;;;;;;;;;3.20;99.90;;;;;;5096531;28;19924;-71
2022/12/08 02:22:23;;;;;;;;;;;3.20;99.90;;;;;;5090752;28;19924;-72
2022/12/08 02:24:52;;;;;;;;;;;3.20;99.90;;;;;;5091827;28;20405;-72
2022/12/08 02:27:37;;;;;;;;;;;3.20;99.90;;;;;;5093139;28;20003;-71
2022/12/08 02:30:17;;;;;;;;;;;3.10;99.90;;;;;;5093126;28;19928;-72
2022/12/08 02:33:01;;;;;;;;;;;3.20;99.90;;;;;;5090695;28;20031;-72
2022/12/08 02:35:33;;;;;;;;;;;3.20;99.90;;;;;;5096148;28;20393;-72
2022/12/08 02:38:04;;;;;;;;;;;3.10;99.90;;;;;;5095935;28;19924;-71
2022/12/08 02:40:33;;;;;;;;;;;3.10;99.90;;;;;;5093012;28;20192;-72
2022/12/08 02:43:02;;;;;;;;;;;3.10;99.90;;;;;;5092777;28;20317;-71
2022/12/08 02:45:31;;;;;;;;;;;3.10;99.90;;;;;;5092249;28;19924;-71
2022/12/08 02:47:59;;;;;;;;;;;3.10;99.90;;;;;;5090575;28;19971;-71
2022/12/08 02:50:26;;;;;;;;;;;3.10;99.90;;;;;;5095289;28;19947;-71
2022/12/08 02:52:54;;;;;;;;;;;3.10;99.90;;;;;;5095440;28;19966;-71
2022/12/08 02:55:24;;;;;;;;;;;3.10;99.90;;;;;;5090388;28;19960;-71
2022/12/08 02:58:19;;;;;;;;;;;3.10;99.90;;;;;;5097622;28;19977;-71
2022/12/08 03:00:51;;;;;;;;;;;3.10;99.90;;;;;;5095541;28;20020;-71
2022/12/08 03:03:24;;;;;;;;;;;3.10;99.90;;;;;;5104169;27;20340;-71
2022/12/08 03:05:59;;;;;;;;;;;3.10;99.90;;;;;;5098002;28;19971;-71
2022/12/08 03:08:32;;;;;;;;;;;3.10;99.90;;;;;;5096280;28;19975;-71
2022/12/08 03:11:01;;;;;;;;;;;3.00;99.90;;;;;;5094828;28;20933;-71
2022/12/08 03:13:31;;;;;;;;;;;3.10;99.90;;;;;;5098291;28;20374;-71
2022/12/08 03:15:59;;;;;;;;;;;3.10;99.90;;;;;;5093934;28;19980;-71
2022/12/08 03:18:29;;;;;;;;;;;3.00;99.90;;;;;;5099859;28;20294;-71
2022/12/08 03:20:55;;;;;;;;;;;3.00;99.90;;;;;;5100481;28;19932;-72
2022/12/08 03:23:24;;;;;;;;;;;3.10;99.90;;;;;;5097302;28;20011;-72
2022/12/08 03:25:56;;;;;;;;;;;3.00;99.90;;;;;;5099384;28;19924;-72
2022/12/08 03:28:23;;;;;;;;;;;3.00;99.90;;;;;;5090780;28;20064;-71
2022/12/08 03:30:53;;;;;;;;;;;3.00;99.90;;;;;;5095244;28;20208;-72
2022/12/08 03:33:23;;;;;;;;;;;3.00;99.90;;;;;;5095435;28;20386;-71
2022/12/08 03:35:50;;;;;;;;;;;3.00;99.90;;;;;;5093586;28;19972;-72
2022/12/08 03:38:17;;;;;;;;;;;3.00;99.90;;;;;;5098453;28;20027;-71
2022/12/08 03:41:17;;;;;;;;;;;3.00;99.90;;;;;;5092809;27;19950;-71
2022/12/08 03:43:35;;;;;;;;;;;3.00;99.90;;;;;;5094759;28;19927;-72
2022/12/08 03:46:02;;;;;;;;;;;2.90;99.90;;;;;;5102001;28;20019;-72
2022/12/08 03:48:28;;;;;;;;;;;3.00;99.90;;;;;;5090307;28;20388;-72
2022/12/08 03:50:55;;;;;;;;;;;2.90;99.90;;;;;;5096259;28;19932;-71
2022/12/08 03:53:22;;;;;;;;;;;2.90;99.90;;;;;;5101236;28;19932;-72
2022/12/08 03:55:49;;;;;;;;;;;2.90;99.90;;;;;;5094170;28;19924;-72
2022/12/08 03:58:16;;;;;;;;;;;2.90;99.90;;;;;;5092937;28;20397;-71
2022/12/08 04:00:44;;;;;;;;;;;2.90;99.90;;;;;;5094696;28;19923;-71
2022/12/08 04:03:11;;;;;;;;;;;2.90;99.90;;;;;;5095344;28;20386;-71
2022/12/08 04:05:38;;;;;;;;;;;2.80;99.90;;;;;;5093181;28;19924;-71
2022/12/08 04:08:05;;;;;;;;;;;2.90;99.90;;;;;;5095385;28;19932;-71
2022/12/08 04:10:32;;;;;;;;;;;2.90;99.90;;;;;;5104099;28;19928;-71
2022/12/08 04:12:58;;;;;;;;;;;2.90;99.90;;;;;;5095143;28;19923;-71
2022/12/08 04:15:25;;;;;;;;;;;2.80;99.90;;;;;;5089113;28;19928;-71
2022/12/08 04:17:54;;;;;;;;;;;2.80;99.90;;;;;;5098391;28;19923;-71
2022/12/08 04:20:21;;;;;;;;;;;2.80;99.90;;;;;;5094283;28;19924;-71
2022/12/08 04:22:47;;;;;;;;;;;2.80;99.90;;;;;;5089636;27;19958;-72
2022/12/08 04:25:14;;;;;;;;;;;2.80;99.90;;;;;;5096325;28;21001;-71
2022/12/08 04:27:41;;;;;;;;;;;2.80;99.90;;;;;;5098939;28;19957;-71
2022/12/08 04:30:09;;;;;;;;;;;2.90;99.90;;;;;;5098341;28;19923;-71
2022/12/08 04:32:36;;;;;;;;;;;2.80;99.90;;;;;;5093929;28;19938;-71
2022/12/08 04:35:04;;;;;;;;;;;2.80;99.90;;;;;;5099917;28;20414;-71
2022/12/08 04:37:31;;;;;;;;;;;2.80;99.90;;;;;;5094564;28;19930;-71
2022/12/08 04:39:58;;;;;;;;;;;2.80;99.90;;;;;;5098322;27;20036;-71
2022/12/08 04:42:25;;;;;;;;;;;2.80;99.90;;;;;;5092155;28;20286;-72
2022/12/08 04:44:52;;;;;;;;;;;2.70;99.90;;;;;;5094961;28;19940;-72
2022/12/08 04:47:19;;;;;;;;;;;2.70;99.90;;;;;;5093866;28;19951;-72
2022/12/08 04:49:46;;;;;;;;;;;2.70;99.90;;;;;;5092086;28;21171;-71
2022/12/08 04:52:14;;;;;;;;;;;2.70;99.90;;;;;;5099731;28;20012;-71
2022/12/08 04:54:41;;;;;;;;;;;2.70;99.90;;;;;;5097656;27;19927;-71
2022/12/08 04:57:08;;;;;;;;;;;2.70;99.90;;;;;;5089638;28;19930;-71
2022/12/08 04:59:35;;;;;;;;;;;2.70;99.90;;;;;;5101252;28;20012;-72
2022/12/08 05:02:02;;;;;;;;;;;2.70;99.90;;;;;;5096417;28;19924;-71
2022/12/08 05:04:28;;;;;;;;;;;2.70;99.90;;;;;;5099657;28;19924;-71
2022/12/08 05:06:55;;;;;;;;;;;2.70;99.90;;;;;;5089792;28;20053;-71
2022/12/08 05:09:23;;;;;;;;;;;2.60;99.90;;;;;;5099638;28;19930;-71
2022/12/08 05:11:50;;;;;;;;;;;2.70;99.90;;;;;;5095814;28;19928;-71
2022/12/08 05:14:18;;;;;;;;;;;2.70;99.90;;;;;;5090235;28;19963;-71
2022/12/08 05:16:45;;;;;;;;;;;2.60;99.90;;;;;;5088112;28;19928;-75
2022/12/08 05:19:12;;;;;;;;;;;2.60;99.90;;;;;;5095320;28;19992;-70
2022/12/08 05:21:39;;;;;;;;;;;2.60;99.90;;;;;;5084446;28;19970;-70
2022/12/08 05:24:06;;;;;;;;;;;2.60;99.90;;;;;;5092715;28;19931;-71
2022/12/08 05:26:34;;;;;;;;;;;2.60;99.90;;;;;;5093968;28;19978;-71
2022/12/08 05:29:01;;;;;;;;;;;2.60;99.90;;;;;;5095758;28;19969;-72
2022/12/08 05:31:28;;;;;;;;;;;2.60;99.90;;;;;;5093658;28;19924;-70
2022/12/08 05:33:55;;;;;;;;;;;2.60;99.90;;;;;;5096651;28;19927;-70
2022/12/08 05:36:22;;;;;;;;;;;2.60;99.90;;;;;;5093789;28;19970;-71
2022/12/08 05:38:49;;;;;;;;;;;2.60;99.90;;;;;;5083004;28;19957;-71
2022/12/08 05:41:17;;;;;;;;;;;2.50;99.90;;;;;;5092139;28;19932;-71
2022/12/08 05:43:46;;;;;;;;;;;2.50;99.90;;;;;;5091905;28;19979;-71
2022/12/08 05:46:13;;;;;;;;;;;2.50;99.90;;;;;;5089845;28;19939;-85
2022/12/08 05:48:40;;;;;;;;;;;2.50;99.90;;;;;;5095553;28;19978;-70
2022/12/08 05:51:08;;;;;;;;;;;2.50;99.90;;;;;;5092385;28;19931;-71
2022/12/08 05:53:34;;;;;;;;;;;2.50;99.90;;;;;;5082172;28;19928;-70
2022/12/08 05:56:01;;;;;;;;;;;2.50;99.90;;;;;;5087868;28;19931;-81
2022/12/08 05:58:28;;;;;;;;;;;2.50;99.90;;;;;;5092662;28;20015;-71
2022/12/08 06:00:59;;;;;;;;;;;2.50;99.90;;;;;;5089773;28;20800;-70
2022/12/08 06:03:26;;;;;;;;;;;2.50;99.90;;;;;;5097939;28;20141;-72
2022/12/08 06:05:53;;;;;;;;;;;2.50;99.90;;;;;;5092051;27;19924;-70
2022/12/08 06:08:20;;;;;;;;;;;2.40;99.90;;;;;;5089252;28;19927;-70
2022/12/08 06:10:47;;;;;;;;;;;2.40;99.90;;;;;;5086693;28;19963;-69
2022/12/08 06:13:14;;;;;;;;;;;2.40;99.90;;;;;;5090055;27;19932;-72
2022/12/08 06:15:41;;;;;;;;;;;2.40;99.90;;;;;;5091269;28;19924;-70
2022/12/08 06:18:09;;;;;;;;;;;2.40;99.90;;;;;;5086572;28;19938;-70
2022/12/08 06:20:36;;;;;;;;;;;2.40;99.90;;;;;;5089621;28;21293;-73
2022/12/08 06:23:03;;;;;;;;;;;2.40;99.90;;;;;;5084816;28;20430;-70
2022/12/08 06:25:30;;;;;;;;;;;2.40;99.90;;;;;;5086129;28;19958;-71
2022/12/08 06:27:57;;;;;;;;;;;2.30;99.90;;;;;;5083381;28;19924;-70
2022/12/08 06:30:24;;;;;;;;;;;2.40;99.90;;;;;;5080491;28;19932;-70
2022/12/08 06:32:51;;;;;;;;;;;2.30;99.90;;;;;;5088619;28;20132;-70
2022/12/08 06:35:19;;;;;;;;;;;2.30;99.90;;;;;;5093945;28;19992;-70
2022/12/08 06:37:46;;;;;;;;;;;2.40;99.90;;;;;;5092120;28;20825;-70
2022/12/08 06:40:13;;;;;;;;;;;2.40;99.90;;;;;;5093276;28;19932;-70
2022/12/08 06:42:46;;;;;;;;;;;2.40;99.90;;;;;;5090253;28;19985;-70
2022/12/08 06:45:14;;;;;;;;;;;2.40;99.90;;;;;;5094253;28;20404;-71
2022/12/08 06:47:41;;;;;;;;;;;2.40;99.90;;;;;;5096030;28;20014;-70
2022/12/08 06:50:08;;;;;;;;;;;2.30;99.90;;;;;;5091171;28;20382;-70
2022/12/08 06:52:36;;;;;;;;;;;2.30;99.90;;;;;;5093863;28;19924;-71
2022/12/08 06:55:04;;;;;;;;;;;2.30;99.90;;;;;;5097084;28;19984;-71
2022/12/08 06:57:30;;;;;;;;;;;2.30;99.90;;;;;;5105386;28;20030;-70
2022/12/08 06:59:57;;;;;;;;;;;2.30;99.90;;;;;;5100542;28;19974;-70
2022/12/08 07:02:24;;;;;;;;;;;2.20;99.90;;;;;;5100153;28;20014;-70
2022/12/08 07:04:51;;;;;;;;;;;2.20;99.90;;;;;;5093305;28;19924;-70
2022/12/08 07:07:18;;;;;;;;;;;2.20;99.90;;;;;;5096421;28;20357;-70
2022/12/08 07:09:46;;;;;;;;;;;2.20;99.90;;;;;;5097626;28;19932;-70
2022/12/08 07:12:13;;;;;;;;;;;2.20;99.90;;;;;;5092823;28;20449;-70
2022/12/08 07:14:40;;;;;;;;;;;2.20;99.90;;;;;;5083813;28;19924;-70
2022/12/08 07:17:07;;;;;;;;;;;2.20;99.90;;;;;;5087034;28;19924;-70
2022/12/08 07:19:34;;;;;;;;;;;2.20;99.90;;;;;;5086937;28;21448;-70
2022/12/08 07:22:01;;;;;;;;;;;2.10;99.90;;;;;;5089930;28;20390;-70
2022/12/08 07:24:28;;;;;;;;;;;2.10;99.90;;;;;;5087924;28;19962;-70
2022/12/08 07:26:56;;;;;;;;;;;2.10;99.90;;;;;;5092113;28;20630;-70
2022/12/08 07:29:23;;;;;;;;;;;2.10;99.90;;;;;;5091238;28;19924;-70
2022/12/08 07:31:50;;;;;;;;;;;2.10;99.90;;;;;;5083330;28;20078;-70
2022/12/08 07:34:17;;;;;;;;;;;2.10;99.90;;;;;;5096923;28;20360;-70
2022/12/08 07:36:43;;;;;;;;;;;2.10;99.90;;;;;;5087568;28;19924;-70
2022/12/08 07:39:10;;;;;;;;;;;2.10;99.90;;;;;;5090744;28;19959;-70
2022/12/08 07:41:37;;;;;;;;;;;2.10;99.90;;;;;;5092068;28;19932;-70
2022/12/08 07:44:05;;;;;;;;;;;2.10;99.90;;;;;;5093455;28;20472;-70
2022/12/08 07:46:32;;;;;;;;;;;2.10;99.90;;;;;;5092392;28;20913;-71
2022/12/08 07:48:59;;;;;;;;;;;2.10;99.90;;;;;;5092953;28;20011;-70
2022/12/08 07:51:26;;;;;;;;;;;2.10;99.90;;;;;;5086988;28;19924;-70
2022/12/08 07:53:53;;;;;;;;;;;2.00;99.90;;;;;;5083616;28;20911;-70
2022/12/08 07:56:19;;;;;;;;;;;2.00;99.90;;;;;;5093773;28;20381;-69
2022/12/08 07:58:46;;;;;;;;;;;2.00;99.90;;;;;;5091883;28;20317;-70
2022/12/08 08:01:22;;;;;;;;;;;2.00;99.90;;;;;;5084144;28;20907;-70
2022/12/08 08:03:50;;;;;;;;;;;2.00;99.90;;;;;;5089945;28;19938;-70
2022/12/08 08:06:17;;;;;;;;;;;2.00;99.90;;;;;;5081192;27;20046;-70
2022/12/08 08:08:43;;;;;;;;;;;2.00;99.90;;;;;;5084924;28;19927;-70
2022/12/08 08:11:11;;;;;;;;;;;2.00;99.90;;;;;;5085462;27;19928;-69
2022/12/08 08:13:37;;;;;;;;;;;2.10;99.90;;;;;;5085478;27;20674;-70
2022/12/08 08:16:05;;;;;;;;;;;2.00;99.90;;;;;;5088817;28;19946;-70
2022/12/08 08:18:35;;;;;;;;;;;2.00;99.90;;;;;;5083083;28;20028;-70
2022/12/08 08:21:02;;;;;;;;;;;2.00;99.90;;;;;;5090086;28;19935;-70
2022/12/08 08:23:29;;;;;;;;;;;2.00;99.90;;;;;;5088703;28;19934;-71
2022/12/08 08:25:58;;;;;;;;;;;2.00;99.90;;;;;;5091139;28;20012;-70
2022/12/08 08:28:25;;;;;;;;;;;2.00;99.90;;;;;;5087180;28;20444;-70
2022/12/08 08:30:52;;;;;;;;;;;2.00;99.90;;;;;;5071357;28;19932;-70
2022/12/08 08:33:19;;;;;;;;;;;2.00;99.90;;;;;;5086894;28;19931;-70
2022/12/08 08:35:47;;;;;;;;;;;2.00;99.90;;;;;;5091155;28;19930;-70
2022/12/08 08:38:14;;;;;;;;;;;2.00;99.90;;;;;;5083438;28;19932;-70
2022/12/08 08:40:41;;;;;;;;;;;2.00;99.90;;;;;;5087528;28;21585;-70
2022/12/08 08:43:08;;;;;;;;;;;2.00;99.90;;;;;;5085391;28;19924;-70
2022/12/08 08:45:35;;;;;;;;;;;2.00;99.90;;;;;;5081428;28;19928;-70
2022/12/08 08:48:02;;;;;;;;;;;1.90;99.90;;;;;;5088339;28;20007;-70
2022/12/08 08:50:29;;;;;;;;;;;1.90;99.90;;;;;;5096622;28;19930;-70
2022/12/08 08:52:57;;;;;;;;;;;1.90;99.90;;;;;;5089715;28;20343;-70
2022/12/08 08:55:24;;;;;;;;;;;1.90;99.90;;;;;;5085342;28;20479;-70
2022/12/08 08:57:51;;;;;;;;;;;2.00;99.90;;;;;;5095517;28;19981;-69
2022/12/08 09:00:18;;;;;;;;;;;2.00;99.90;;;;;;5089281;28;19928;-70
2022/12/08 09:02:48;;;;;;;;;;;2.00;99.90;;;;;;5086104;28;20306;-70
2022/12/08 09:05:15;;;;;;;;;;;2.00;99.90;;;;;;5085221;28;19981;-70
2022/12/08 09:07:42;;;;;;;;;;;1.90;99.90;;;;;;5081496;28;20298;-70
2022/12/08 09:10:13;;;;;;;;;;;1.90;99.90;;;;;;5083249;28;20030;-70
2022/12/08 09:12:40;;;;;;;;;;;1.90;99.90;;;;;;5087805;28;19935;-70
2022/12/08 09:15:07;;;;;;;;;;;1.90;99.90;;;;;;5091508;28;19924;-71
2022/12/08 09:17:34;;;;;;;;;;;1.90;99.90;;;;;;5093871;28;20126;-70
2022/12/08 09:20:01;;;;;;;;;;;2.00;99.90;;;;;;5084338;28;20328;-70
2022/12/08 09:22:28;;;;;;;;;;;2.00;99.90;;;;;;5084215;27;19931;-71
2022/12/08 09:24:55;;;;;;;;;;;2.00;99.90;;;;;;5090042;28;20344;-70
2022/12/08 09:27:23;;;;;;;;;;;2.00;99.90;;;;;;5089267;28;20673;-70
2022/12/08 09:29:54;;;;;;;;;;;2.00;99.90;;;;;;5077026;28;19954;-70
2022/12/08 09:32:21;;;;;;;;;;;2.00;99.90;;;;;;5047847;28;20004;-70
2022/12/08 09:34:48;;;;;;;;;;;2.00;99.90;;;;;;5082957;28;19924;-70
2022/12/08 09:37:15;;;;;;;;;;;2.00;99.90;;;;;;5080782;28;20004;-70
2022/12/08 09:39:42;;;;;;;;;;;2.00;99.90;;;;;;5082013;28;19923;-71
2022/12/08 09:42:10;;;;;;;;;;;2.00;99.90;;;;;;5084683;28;19932;-70
2022/12/08 09:44:42;;;;;;;;;;;2.00;99.90;;;;;;5078299;28;20014;-70
2022/12/08 09:47:16;;;;;;;;;;;2.00;99.90;;;;;;5073006;28;19971;-70
2022/12/08 09:49:48;;;;;;;;;;;2.00;99.90;;;;;;5077380;28;21677;-70
2022/12/08 09:52:20;;;;;;;;;;;2.00;99.90;;;;;;5086517;28;19932;-70
2022/12/08 09:54:47;;;;;;;;;;;2.00;99.90;;;;;;5081906;28;19935;-71
2022/12/08 09:57:16;;;;;;;;;;;2.10;99.90;;;;;;5077986;28;20022;-70
2022/12/08 09:59:47;;;;;;;;;;;2.10;99.90;;;;;;5086548;28;19993;-70
2022/12/08 10:02:19;;;;;;;;;;;2.10;99.90;;;;;;5085315;28;19924;-70
2022/12/08 10:04:46;;;;;;;;;;;2.10;99.90;;;;;;5074035;28;20484;-70
2022/12/08 10:07:17;;;;;;;;;;;2.10;99.90;;;;;;5080965;28;19953;-70
2022/12/08 10:09:46;;;;;;;;;;;2.10;99.90;;;;;;5072377;28;19963;-70
2022/12/08 10:12:17;;;;;;;;;;;2.10;99.90;;;;;;5080343;28;19963;-70
2022/12/08 10:14:47;;;;;;;;;;;2.10;99.90;;;;;;5076084;28;19935;-70
2022/12/08 10:17:17;;;;;;;;;;;2.10;99.90;;;;;;5075812;28;20403;-70
2022/12/08 10:19:46;;;;;;;;;;;2.10;99.90;;;;;;5081691;28;20018;-71
2022/12/08 10:22:20;;;;;;;;;;;2.10;99.90;;;;;;5069146;28;19937;-70
2022/12/08 10:24:52;;;;;;;;;;;2.10;99.90;;;;;;5080978;28;21268;-70
2022/12/08 10:27:19;;;;;;;;;;;2.10;99.90;;;;;;5086908;28;20340;-70
2022/12/08 10:29:47;;;;;;;;;;;2.10;99.90;;;;;;5083029;28;19977;-70
2022/12/08 10:32:17;;;;;;;;;;;2.10;99.90;;;;;;5084119;28;19939;-70
2022/12/08 10:35:00;;;;;;;;;;;2.10;99.90;;;;;;5091829;28;20026;-70
2022/12/08 10:37:27;;;;;;;;;;;2.10;99.90;;;;;;5083587;28;20405;-71
2022/12/08 10:40:00;;;;;;;;;;;2.10;99.90;;;;;;5068887;28;19932;-70
2022/12/08 10:42:31;;;;;;;;;;;2.10;99.90;;;;;;5084818;28;19932;-70
2022/12/08 10:45:03;;;;;;;;;;;2.10;99.90;;;;;;5084034;28;19931;-70
2022/12/08 10:47:35;;;;;;;;;;;2.10;99.90;;;;;;5077654;28;19932;-70
2022/12/08 10:50:10;;;;;;;;;;;2.20;99.90;;;;;;5083561;28;20079;-70
2022/12/08 10:52:41;;;;;;;;;;;2.20;99.90;;;;;;5074883;28;19928;-70
2022/12/08 10:55:13;;;;;;;;;;;2.20;99.90;;;;;;5084387;28;19932;-71
2022/12/08 10:57:40;;;;;;;;;;;2.20;99.90;;;;;;5081701;28;19932;-71
2022/12/08 11:00:11;;;;;;;;;;;2.20;99.90;;;;;;5078808;28;19936;-71
2022/12/08 11:02:49;;;;;;;;;;;2.20;99.90;;;;;;5087120;28;19984;-70
2022/12/08 11:05:18;;;;;;;;;;;2.20;99.90;;;;;;5078771;28;19977;-71
2022/12/08 11:07:46;;;;;;;;;;;2.20;99.90;;;;;;5092880;28;20401;-69
2022/12/08 11:10:17;;;;;;;;;;;2.20;99.90;;;;;;5089615;28;20309;-70
2022/12/08 11:12:44;;;;;;;;;;;2.20;99.90;;;;;;5094842;28;19931;-70
2022/12/08 11:15:15;;;;;;;;;;;2.20;99.90;;;;;;5097861;28;19963;-70
2022/12/08 11:17:44;;;;;;;;;;;2.20;99.90;;;;;;5090523;28;19939;-70
2022/12/08 11:20:22;;;;;;;;;;;2.20;99.90;;;;;;5097135;28;19932;-70
2022/12/08 11:22:52;;;;;;;;;;;2.20;99.90;;;;;;5094984;28;20609;-70
2022/12/08 11:25:20;;;;;;;;;;;2.20;99.90;;;;;;5098728;28;19935;-70
2022/12/08 11:27:48;;;;;;;;;;;2.20;99.90;;;;;;5084032;28;20405;-85
2022/12/08 11:30:18;;;;;;;;;;;2.30;99.90;;;;;;5087335;28;20335;-70
2022/12/08 11:32:46;;;;;;;;;;;2.30;99.90;;;;;;5086293;28;19946;-70
2022/12/08 11:35:18;;;;;;;;;;;2.30;99.90;;;;;;5090909;28;19924;-70
2022/12/08 11:37:45;;;;;;;;;;;2.30;99.90;;;;;;5096440;28;19980;-70
2022/12/08 11:40:16;;;;;;;;;;;2.30;99.90;;;;;;5098606;28;20575;-70
2022/12/08 11:42:59;;;;;;;;;;;2.30;99.90;;;;;;5101795;28;19924;-71
2022/12/08 11:45:30;;;;;;;;;;;2.30;99.90;;;;;;5091721;28;19956;-70
2022/12/08 11:48:01;;;;;;;;;;;2.30;99.90;;;;;;5085314;28;19927;-70
2022/12/08 11:50:30;;;;;;;;;;;2.30;99.90;;;;;;5094324;28;20352;-70
2022/12/08 11:52:57;;;;;;;;;;;2.40;99.90;;;;;;5089735;28;19924;-71
2022/12/08 11:55:31;;;;;;;;;;;2.40;99.90;;;;;;5088462;28;20455;-70
2022/12/08 11:58:00;;;;;;;;;;;2.40;99.90;;;;;;5093478;28;19939;-70
2022/12/08 12:00:28;;;;;;;;;;;2.40;99.90;;;;;;5092314;28;19927;-70
2022/12/08 12:03:00;;;;;;;;;;;2.40;99.90;;;;;;5089377;28;19982;-71
2022/12/08 12:05:30;;;;;;;;;;;2.40;99.90;;;;;;5095397;28;20435;-70
2022/12/08 12:08:01;;;;;;;;;;;2.40;99.90;;;;;;5090432;28;20390;-70
2022/12/08 12:10:35;;;;;;;;;;;2.40;99.90;;;;;;5088067;28;20454;-70
2022/12/08 12:13:07;;;;;;;;;;;2.40;99.90;;;;;;5094313;28;20410;-71
2022/12/08 12:15:52;;;;;;;;;;;2.40;99.90;;;;;;5092189;28;20302;-71
2022/12/08 12:18:25;;;;;;;;;;;2.40;99.90;;;;;;5084198;28;19939;-70
2022/12/08 12:20:53;;;;;;;;;;;2.40;99.90;;;;;;5092855;28;20427;-70
2022/12/08 12:23:22;;;;;;;;;;;2.40;99.90;;;;;;5090713;28;19923;-69
2022/12/08 12:25:50;;;;;;;;;;;2.40;99.90;;;;;;5091174;28;20966;-70
2022/12/08 12:28:20;;;;;;;;;;;2.40;99.90;;;;;;5080329;28;19969;-72
2022/12/08 12:30:53;;;;;;;;;;;2.40;99.90;;;;;;5090456;28;19935;-70
2022/12/08 12:33:22;;;;;;;;;;;2.40;99.90;;;;;;5091473;28;20290;-70
2022/12/08 12:35:49;;;;;;;;;;;2.40;99.90;;;;;;5093440;28;20022;-71
2022/12/08 12:41:05;;;;;;;;;;;2.50;99.90;;;;;;5093874;28;19931;-72
2022/12/08 12:43:36;;;;;;;;;;;2.50;99.90;;;;;;5060465;28;19928;-70
2022/12/08 12:46:21;;;;;;;;;;;2.40;99.90;;;;;;5074132;28;20408;-70
2022/12/08 12:48:50;;;;;;;;;;;2.40;99.90;;;;;;5089737;28;19985;-71
2022/12/08 12:51:42;;;;;;;;;;;2.40;99.90;;;;;;5087099;28;19930;-71
2022/12/08 12:54:20;;;;;;;;;;;2.50;99.90;;;;;;5082558;28;20381;-71
2022/12/08 12:56:51;;;;;;;;;;;2.40;99.90;;;;;;5090523;28;19932;-71
2022/12/08 12:59:22;;;;;;;;;;;2.50;99.90;;;;;;5090970;28;19928;-71
2022/12/08 13:01:52;;;;;;;;;;;2.50;99.90;;;;;;5086980;28;20411;-71
2022/12/08 13:04:28;;;;;;;;;;;2.50;99.90;;;;;;5083487;28;19924;-71
2022/12/08 13:06:55;;;;;;;;;;;2.50;99.90;;;;;;5092437;28;20018;-71
2022/12/08 13:09:24;;;;;;;;;;;2.50;99.90;;;;;;5089806;28;20339;-71
2022/12/08 13:11:52;;;;;;;;;;;2.50;99.90;;;;;;5085916;28;20298;-71
2022/12/08 13:14:33;;;;;;;;;;;2.50;99.90;;;;;;5080713;28;19928;-71
2022/12/08 13:17:01;;;;;;;;;;;2.50;99.90;;;;;;5090253;28;19931;-71
2022/12/08 13:19:32;;;;;;;;;;;2.50;99.90;;;;;;5084689;28;19924;-71
2022/12/08 13:21:59;;;;;;;;;;;2.50;99.90;;;;;;5089135;28;20119;-71
2022/12/08 13:24:31;;;;;;;;;;;2.50;99.90;;;;;;5089409;28;19935;-71
2022/12/08 13:27:13;;;;;;;;;;;2.50;99.90;;;;;;5088259;28;19924;-71
2022/12/08 13:29:40;;;;;;;;;;;2.50;99.90;;;;;;5086960;28;19935;-71
2022/12/08 13:32:39;;;;;;;;;;;2.50;99.90;;;;;;5085807;28;20397;-70
2022/12/08 13:35:11;;;;;;;;;;;2.50;99.90;;;;;;5100987;27;24704;-70
2022/12/08 13:37:42;;;;;;;;;;;2.50;99.90;;;;;;5091851;28;19975;-70
2022/12/08 13:40:10;;;;;;;;;;;2.60;99.90;;;;;;5084221;27;19930;-71
2022/12/08 13:42:42;;;;;;;;;;;2.60;99.90;;;;;;5086166;28;19932;-71
2022/12/08 13:45:14;;;;;;;;;;;2.60;99.90;;;;;;5088383;28;20374;-71
2022/12/08 13:47:44;;;;;;;;;;;2.60;99.90;;;;;;5081469;28;19932;-71
2022/12/08 13:50:13;;;;;;;;;;;2.60;99.90;;;;;;5091154;28;19924;-71
2022/12/08 13:52:43;;;;;;;;;;;2.50;99.90;;;;;;5080836;28;19932;-71
2022/12/08 13:55:15;;;;;;;;;;;2.60;99.90;;;;;;5075377;28;20659;-71
2022/12/08 13:57:42;;;;;;;;;;;2.60;99.90;;;;;;5066794;28;20030;-72
2022/12/08 14:00:15;;;;;;;;;;;2.60;99.90;;;;;;5071707;28;20006;-72
2022/12/08 14:02:43;;;;;;;;;;;2.60;99.90;;;;;;5073311;28;19967;-71
2022/12/08 14:05:10;;;;;;;;;;;2.60;99.90;;;;;;5059938;28;19931;-71
2022/12/08 14:07:40;;;;;;;;;;;2.60;99.90;;;;;;5083530;28;19924;-70
2022/12/08 14:10:11;;;;;;;;;;;2.60;99.90;;;;;;5087782;28;19969;-82
2022/12/08 14:12:45;;;;;;;;;;;2.60;99.90;;;;;;5088260;28;20301;-84
2022/12/08 14:15:13;;;;;;;;;;;2.60;99.90;;;;;;5085055;28;19923;-86
2022/12/08 14:17:40;;;;;;;;;;;2.60;99.90;;;;;;5093305;28;19932;-72
2022/12/08 14:20:25;;;;;;;;;;;2.60;99.90;;;;;;5069298;28;20168;-73
2022/12/08 14:22:53;;;;;;;;;;;2.60;99.90;;;;;;5047703;28;20343;-72
2022/12/08 14:25:20;;;;;;;;;;;2.70;99.90;;;;;;5049769;28;20414;-72
2022/12/08 14:27:47;;;;;;;;;;;2.60;99.90;;;;;;5053022;28;19971;-72
2022/12/08 14:30:18;;;;;;;;;;;2.60;99.90;;;;;;5045406;28;20019;-71
2022/12/08 14:32:47;;;;;;;;;;;2.60;99.90;;;;;;5047128;28;20023;-71
2022/12/08 14:35:19;;;;;;;;;;;2.70;99.90;;;;;;5047453;28;20370;-72
2022/12/08 14:37:48;;;;;;;;;;;2.60;99.90;;;;;;5033162;28;19948;-72
2022/12/08 14:40:19;;;;;;;;;;;2.60;99.90;;;;;;5015006;28;20451;-72
2022/12/08 14:42:47;;;;;;;;;;;2.70;99.90;;;;;;5018804;28;20151;-72
2022/12/08 14:45:15;;;;;;;;;;;2.60;99.90;;;;;;5019918;28;19936;-71
2022/12/08 14:47:42;;;;;;;;;;;2.70;99.90;;;;;;5012780;28;20395;-71
2022/12/08 14:50:23;;;;;;;;;;;2.70;99.90;;;;;;5020478;28;22626;-71